sensor_id;sensor_type;location;lat;lon;timestamp;P1;durP1;ratioP1;P2;durP2;ratioP2
60205;SDS011;46072;51.554;6.846;2022-12-07T00:01:27;60.25;;;27.10;;
60205;SDS011;46072;51.554;6.846;2022-12-07T00:03:56;64.07;;;27.83;;
60205;SDS011;46072;51.554;6.846;2022-12-07T00:06:26;64.78;;;27.42;;
60205;SDS011;46072;51.554;6.846;2022-12-07T00:08:53;60.38;;;27.77;;
60205;SDS011;46072;51.554;6.846;2022-12-07T00:11:20;59.90;;;26.38;;
60205;SDS011;46072;51.554;6.846;2022-12-07T00:13:50;55.90;;;26.83;;
60205;SDS011;46072;51.554;6.846;2022-12-07T00:16:18;58.75;;;27.45;;
60205;SDS011;46072;51.554;6.846;2022-12-07T00:18:46;56.97;;;27.40;;
60205;SDS011;46072;51.554;6.846;2022-12-07T00:21:14;66.13;;;28.58;;
60205;SDS011;46072;51.554;6.846;2022-12-07T00:23:42;60.10;;;27.58;;
60205;SDS011;46072;51.554;6.846;2022-12-07T00:26:17;62.60;;;28.60;;
60205;SDS011;46072;51.554;6.846;2022-12-07T00:28:45;61.22;;;27.88;;
60205;SDS011;46072;51.554;6.846;2022-12-07T00:31:13;65.22;;;30.33;;
60205;SDS011;46072;51.554;6.846;2022-12-07T00:33:41;74.78;;;29.10;;
60205;SDS011;46072;51.554;6.846;2022-12-07T00:36:09;66.85;;;29.70;;
60205;SDS011;46072;51.554;6.846;2022-12-07T00:38:37;68.65;;;28.77;;
60205;SDS011;46072;51.554;6.846;2022-12-07T00:41:09;63.05;;;30.25;;
60205;SDS011;46072;51.554;6.846;2022-12-07T00:43:38;64.30;;;29.52;;
60205;SDS011;46072;51.554;6.846;2022-12-07T00:46:05;59.33;;;29.08;;
60205;SDS011;46072;51.554;6.846;2022-12-07T00:48:32;66.85;;;29.92;;
60205;SDS011;46072;51.554;6.846;2022-12-07T00:50:59;63.80;;;30.38;;
60205;SDS011;46072;51.554;6.846;2022-12-07T00:53:26;63.10;;;28.27;;
60205;SDS011;46072;51.554;6.846;2022-12-07T00:55:52;63.42;;;30.38;;
60205;SDS011;46072;51.554;6.846;2022-12-07T00:58:19;73.15;;;31.90;;
60205;SDS011;46072;51.554;6.846;2022-12-07T01:00:46;61.63;;;27.95;;
60205;SDS011;46072;51.554;6.846;2022-12-07T01:03:12;65.22;;;30.95;;
60205;SDS011;46072;51.554;6.846;2022-12-07T01:05:40;63.72;;;28.98;;
60205;SDS011;46072;51.554;6.846;2022-12-07T01:08:06;60.92;;;28.52;;
60205;SDS011;46072;51.554;6.846;2022-12-07T01:10:33;60.47;;;28.20;;
60205;SDS011;46072;51.554;6.846;2022-12-07T01:12:59;58.97;;;27.70;;
60205;SDS011;46072;51.554;6.846;2022-12-07T01:15:26;59.55;;;28.80;;
60205;SDS011;46072;51.554;6.846;2022-12-07T01:17:53;57.75;;;27.02;;
60205;SDS011;46072;51.554;6.846;2022-12-07T01:20:21;60.90;;;28.55;;
60205;SDS011;46072;51.554;6.846;2022-12-07T01:22:47;62.22;;;27.92;;
60205;SDS011;46072;51.554;6.846;2022-12-07T01:25:14;65.85;;;28.85;;
60205;SDS011;46072;51.554;6.846;2022-12-07T01:27:40;62.65;;;28.00;;
60205;SDS011;46072;51.554;6.846;2022-12-07T01:30:07;69.30;;;29.33;;
60205;SDS011;46072;51.554;6.846;2022-12-07T01:32:34;62.42;;;28.75;;
60205;SDS011;46072;51.554;6.846;2022-12-07T01:35:00;77.40;;;32.30;;
60205;SDS011;46072;51.554;6.846;2022-12-07T01:37:26;69.82;;;31.50;;
60205;SDS011;46072;51.554;6.846;2022-12-07T01:39:53;64.03;;;30.38;;
60205;SDS011;46072;51.554;6.846;2022-12-07T01:42:19;67.93;;;29.65;;
60205;SDS011;46072;51.554;6.846;2022-12-07T01:47:48;63.75;;;29.52;;
60205;SDS011;46072;51.554;6.846;2022-12-07T01:50:17;71.38;;;31.55;;
60205;SDS011;46072;51.554;6.846;2022-12-07T01:52:44;68.15;;;29.65;;
60205;SDS011;46072;51.554;6.846;2022-12-07T01:55:12;57.92;;;28.63;;
60205;SDS011;46072;51.554;6.846;2022-12-07T01:57:40;66.85;;;28.35;;
60205;SDS011;46072;51.554;6.846;2022-12-07T02:00:10;62.90;;;28.23;;
60205;SDS011;46072;51.554;6.846;2022-12-07T02:02:38;56.20;;;27.83;;
60205;SDS011;46072;51.554;6.846;2022-12-07T02:05:10;71.80;;;31.08;;
60205;SDS011;46072;51.554;6.846;2022-12-07T02:07:37;69.80;;;31.23;;
60205;SDS011;46072;51.554;6.846;2022-12-07T02:10:18;76.57;;;31.50;;
60205;SDS011;46072;51.554;6.846;2022-12-07T02:12:47;65.00;;;29.52;;
60205;SDS011;46072;51.554;6.846;2022-12-07T02:15:15;68.72;;;32.22;;
60205;SDS011;46072;51.554;6.846;2022-12-07T02:20:30;82.10;;;30.77;;
60205;SDS011;46072;51.554;6.846;2022-12-07T02:23:04;72.05;;;31.15;;
60205;SDS011;46072;51.554;6.846;2022-12-07T02:28:35;65.68;;;30.90;;
60205;SDS011;46072;51.554;6.846;2022-12-07T02:31:14;68.25;;;30.42;;
60205;SDS011;46072;51.554;6.846;2022-12-07T02:33:49;75.55;;;30.85;;
60205;SDS011;46072;51.554;6.846;2022-12-07T02:36:30;69.53;;;29.65;;
60205;SDS011;46072;51.554;6.846;2022-12-07T02:39:19;74.55;;;29.60;;
60205;SDS011;46072;51.554;6.846;2022-12-07T02:41:53;69.07;;;29.35;;
60205;SDS011;46072;51.554;6.846;2022-12-07T02:44:23;72.45;;;29.33;;
60205;SDS011;46072;51.554;6.846;2022-12-07T02:46:55;67.03;;;29.42;;
60205;SDS011;46072;51.554;6.846;2022-12-07T02:49:26;87.88;;;33.58;;
60205;SDS011;46072;51.554;6.846;2022-12-07T02:51:53;62.72;;;27.85;;
60205;SDS011;46072;51.554;6.846;2022-12-07T02:54:20;84.63;;;34.25;;
60205;SDS011;46072;51.554;6.846;2022-12-07T02:56:52;92.15;;;35.95;;
60205;SDS011;46072;51.554;6.846;2022-12-07T03:07:54;85.55;;;32.63;;
60205;SDS011;46072;51.554;6.846;2022-12-07T03:10:33;63.55;;;29.13;;
60205;SDS011;46072;51.554;6.846;2022-12-07T03:13:12;67.65;;;29.50;;
60205;SDS011;46072;51.554;6.846;2022-12-07T03:16:04;64.30;;;27.67;;
60205;SDS011;46072;51.554;6.846;2022-12-07T03:18:35;65.70;;;27.65;;
60205;SDS011;46072;51.554;6.846;2022-12-07T03:21:06;69.22;;;29.50;;
60205;SDS011;46072;51.554;6.846;2022-12-07T03:23:38;68.35;;;28.80;;
60205;SDS011;46072;51.554;6.846;2022-12-07T03:26:06;67.30;;;29.60;;
60205;SDS011;46072;51.554;6.846;2022-12-07T03:28:36;67.68;;;29.00;;
60205;SDS011;46072;51.554;6.846;2022-12-07T03:31:23;68.53;;;28.90;;
60205;SDS011;46072;51.554;6.846;2022-12-07T03:33:55;73.97;;;31.58;;
60205;SDS011;46072;51.554;6.846;2022-12-07T03:36:47;67.13;;;29.75;;
60205;SDS011;46072;51.554;6.846;2022-12-07T03:39:20;73.20;;;31.38;;
60205;SDS011;46072;51.554;6.846;2022-12-07T03:41:50;71.28;;;31.42;;
60205;SDS011;46072;51.554;6.846;2022-12-07T03:44:17;76.18;;;31.23;;
60205;SDS011;46072;51.554;6.846;2022-12-07T03:46:48;75.13;;;30.75;;
60205;SDS011;46072;51.554;6.846;2022-12-07T03:57:33;70.47;;;29.58;;
60205;SDS011;46072;51.554;6.846;2022-12-07T04:00:00;69.43;;;29.35;;
60205;SDS011;46072;51.554;6.846;2022-12-07T04:02:30;64.57;;;28.58;;
60205;SDS011;46072;51.554;6.846;2022-12-07T04:04:58;76.78;;;29.45;;
60205;SDS011;46072;51.554;6.846;2022-12-07T04:07:24;65.45;;;30.02;;
60205;SDS011;46072;51.554;6.846;2022-12-07T04:09:51;65.47;;;27.02;;
60205;SDS011;46072;51.554;6.846;2022-12-07T04:12:18;72.22;;;30.65;;
60205;SDS011;46072;51.554;6.846;2022-12-07T04:14:44;77.47;;;31.73;;
60205;SDS011;46072;51.554;6.846;2022-12-07T04:17:11;64.10;;;28.55;;
60205;SDS011;46072;51.554;6.846;2022-12-07T04:19:37;73.35;;;30.20;;
60205;SDS011;46072;51.554;6.846;2022-12-07T04:22:04;70.35;;;29.95;;
60205;SDS011;46072;51.554;6.846;2022-12-07T04:24:31;70.45;;;29.52;;
60205;SDS011;46072;51.554;6.846;2022-12-07T04:26:58;68.82;;;28.90;;
60205;SDS011;46072;51.554;6.846;2022-12-07T04:29:25;69.78;;;30.02;;
60205;SDS011;46072;51.554;6.846;2022-12-07T04:31:51;65.32;;;27.95;;
60205;SDS011;46072;51.554;6.846;2022-12-07T04:34:19;72.22;;;29.65;;
60205;SDS011;46072;51.554;6.846;2022-12-07T04:36:46;72.40;;;27.70;;
60205;SDS011;46072;51.554;6.846;2022-12-07T04:39:26;77.75;;;32.05;;
60205;SDS011;46072;51.554;6.846;2022-12-07T04:41:54;71.57;;;29.33;;
60205;SDS011;46072;51.554;6.846;2022-12-07T04:44:21;67.82;;;28.83;;
60205;SDS011;46072;51.554;6.846;2022-12-07T04:46:48;65.53;;;29.95;;
60205;SDS011;46072;51.554;6.846;2022-12-07T04:49:15;76.10;;;32.45;;
60205;SDS011;46072;51.554;6.846;2022-12-07T04:51:42;70.95;;;31.48;;
60205;SDS011;46072;51.554;6.846;2022-12-07T04:54:09;84.65;;;35.35;;
60205;SDS011;46072;51.554;6.846;2022-12-07T04:56:36;89.55;;;34.92;;
60205;SDS011;46072;51.554;6.846;2022-12-07T04:59:03;77.55;;;31.08;;
60205;SDS011;46072;51.554;6.846;2022-12-07T05:01:29;84.78;;;32.65;;
60205;SDS011;46072;51.554;6.846;2022-12-07T05:03:57;85.68;;;32.15;;
60205;SDS011;46072;51.554;6.846;2022-12-07T05:06:24;69.50;;;31.48;;
60205;SDS011;46072;51.554;6.846;2022-12-07T05:08:50;85.18;;;33.00;;
60205;SDS011;46072;51.554;6.846;2022-12-07T05:11:17;76.03;;;31.23;;
60205;SDS011;46072;51.554;6.846;2022-12-07T05:14:03;79.40;;;30.13;;
60205;SDS011;46072;51.554;6.846;2022-12-07T05:16:31;71.88;;;30.33;;
60205;SDS011;46072;51.554;6.846;2022-12-07T05:18:58;92.55;;;31.85;;
60205;SDS011;46072;51.554;6.846;2022-12-07T05:21:24;70.32;;;29.30;;
60205;SDS011;46072;51.554;6.846;2022-12-07T05:23:51;74.28;;;31.80;;
60205;SDS011;46072;51.554;6.846;2022-12-07T05:26:18;73.70;;;30.23;;
60205;SDS011;46072;51.554;6.846;2022-12-07T05:28:44;72.38;;;30.52;;
60205;SDS011;46072;51.554;6.846;2022-12-07T05:31:11;74.15;;;30.10;;
60205;SDS011;46072;51.554;6.846;2022-12-07T05:33:37;68.22;;;28.90;;
60205;SDS011;46072;51.554;6.846;2022-12-07T05:36:04;76.35;;;29.30;;
60205;SDS011;46072;51.554;6.846;2022-12-07T05:38:31;74.80;;;29.83;;
60205;SDS011;46072;51.554;6.846;2022-12-07T05:41:02;66.65;;;29.13;;
60205;SDS011;46072;51.554;6.846;2022-12-07T05:43:29;64.65;;;27.95;;
60205;SDS011;46072;51.554;6.846;2022-12-07T05:45:56;65.57;;;30.60;;
60205;SDS011;46072;51.554;6.846;2022-12-07T05:48:23;80.10;;;32.47;;
60205;SDS011;46072;51.554;6.846;2022-12-07T05:50:50;65.15;;;29.75;;
60205;SDS011;46072;51.554;6.846;2022-12-07T05:53:17;66.00;;;28.95;;
60205;SDS011;46072;51.554;6.846;2022-12-07T05:55:48;77.97;;;29.60;;
60205;SDS011;46072;51.554;6.846;2022-12-07T05:58:14;68.55;;;27.92;;
60205;SDS011;46072;51.554;6.846;2022-12-07T06:00:59;60.33;;;26.67;;
60205;SDS011;46072;51.554;6.846;2022-12-07T06:03:26;76.95;;;29.58;;
60205;SDS011;46072;51.554;6.846;2022-12-07T06:05:52;80.13;;;28.25;;
60205;SDS011;46072;51.554;6.846;2022-12-07T06:08:19;73.55;;;28.58;;
60205;SDS011;46072;51.554;6.846;2022-12-07T06:10:46;63.65;;;28.58;;
60205;SDS011;46072;51.554;6.846;2022-12-07T06:13:33;67.13;;;28.05;;
60205;SDS011;46072;51.554;6.846;2022-12-07T06:15:59;70.57;;;28.55;;
60205;SDS011;46072;51.554;6.846;2022-12-07T06:18:26;77.82;;;27.85;;
60205;SDS011;46072;51.554;6.846;2022-12-07T06:20:52;69.82;;;26.50;;
60205;SDS011;46072;51.554;6.846;2022-12-07T06:23:18;68.40;;;28.08;;
60205;SDS011;46072;51.554;6.846;2022-12-07T06:25:45;69.50;;;27.30;;
60205;SDS011;46072;51.554;6.846;2022-12-07T06:28:12;71.65;;;29.52;;
60205;SDS011;46072;51.554;6.846;2022-12-07T06:30:38;72.85;;;27.48;;
60205;SDS011;46072;51.554;6.846;2022-12-07T06:33:04;76.15;;;29.13;;
60205;SDS011;46072;51.554;6.846;2022-12-07T06:35:32;74.68;;;25.65;;
60205;SDS011;46072;51.554;6.846;2022-12-07T06:37:59;74.35;;;27.80;;
60205;SDS011;46072;51.554;6.846;2022-12-07T06:40:25;64.82;;;26.95;;
60205;SDS011;46072;51.554;6.846;2022-12-07T06:42:51;64.30;;;25.50;;
60205;SDS011;46072;51.554;6.846;2022-12-07T06:45:18;55.13;;;22.80;;
60205;SDS011;46072;51.554;6.846;2022-12-07T06:47:44;58.60;;;22.52;;
60205;SDS011;46072;51.554;6.846;2022-12-07T06:50:12;48.97;;;22.80;;
60205;SDS011;46072;51.554;6.846;2022-12-07T06:52:39;60.55;;;24.30;;
60205;SDS011;46072;51.554;6.846;2022-12-07T06:55:05;54.35;;;25.05;;
60205;SDS011;46072;51.554;6.846;2022-12-07T06:57:32;59.65;;;24.58;;
60205;SDS011;46072;51.554;6.846;2022-12-07T06:59:58;61.20;;;23.65;;
60205;SDS011;46072;51.554;6.846;2022-12-07T07:02:26;62.28;;;26.08;;
60205;SDS011;46072;51.554;6.846;2022-12-07T07:04:52;62.63;;;26.88;;
60205;SDS011;46072;51.554;6.846;2022-12-07T07:07:19;59.42;;;24.67;;
60205;SDS011;46072;51.554;6.846;2022-12-07T07:09:45;64.78;;;26.27;;
60205;SDS011;46072;51.554;6.846;2022-12-07T07:12:12;69.80;;;24.95;;
60205;SDS011;46072;51.554;6.846;2022-12-07T07:14:38;57.75;;;25.55;;
60205;SDS011;46072;51.554;6.846;2022-12-07T07:17:05;56.03;;;23.25;;
60205;SDS011;46072;51.554;6.846;2022-12-07T07:19:31;56.05;;;22.52;;
60205;SDS011;46072;51.554;6.846;2022-12-07T07:21:57;59.38;;;24.23;;
60205;SDS011;46072;51.554;6.846;2022-12-07T07:24:24;59.85;;;24.73;;
60205;SDS011;46072;51.554;6.846;2022-12-07T07:26:50;56.63;;;24.83;;
60205;SDS011;46072;51.554;6.846;2022-12-07T07:29:17;66.72;;;26.33;;
60205;SDS011;46072;51.554;6.846;2022-12-07T07:31:43;71.32;;;27.13;;
60205;SDS011;46072;51.554;6.846;2022-12-07T07:34:10;61.78;;;24.80;;
60205;SDS011;46072;51.554;6.846;2022-12-07T07:36:36;67.40;;;23.52;;
60205;SDS011;46072;51.554;6.846;2022-12-07T07:39:03;62.55;;;25.52;;
60205;SDS011;46072;51.554;6.846;2022-12-07T07:41:29;65.25;;;24.73;;
60205;SDS011;46072;51.554;6.846;2022-12-07T07:43:56;61.97;;;24.98;;
60205;SDS011;46072;51.554;6.846;2022-12-07T07:46:23;57.85;;;25.38;;
60205;SDS011;46072;51.554;6.846;2022-12-07T07:48:49;63.30;;;23.50;;
60205;SDS011;46072;51.554;6.846;2022-12-07T07:51:16;75.20;;;26.10;;
60205;SDS011;46072;51.554;6.846;2022-12-07T07:53:42;58.13;;;24.10;;
60205;SDS011;46072;51.554;6.846;2022-12-07T07:56:08;59.53;;;23.20;;
60205;SDS011;46072;51.554;6.846;2022-12-07T07:58:35;66.35;;;25.73;;
60205;SDS011;46072;51.554;6.846;2022-12-07T08:01:05;66.05;;;26.58;;
60205;SDS011;46072;51.554;6.846;2022-12-07T08:03:32;60.63;;;23.27;;
60205;SDS011;46072;51.554;6.846;2022-12-07T08:05:58;61.70;;;23.65;;
60205;SDS011;46072;51.554;6.846;2022-12-07T08:08:25;59.53;;;24.52;;
60205;SDS011;46072;51.554;6.846;2022-12-07T08:10:51;57.70;;;22.85;;
60205;SDS011;46072;51.554;6.846;2022-12-07T08:13:18;59.38;;;22.95;;
60205;SDS011;46072;51.554;6.846;2022-12-07T08:15:46;57.83;;;23.80;;
60205;SDS011;46072;51.554;6.846;2022-12-07T08:18:14;53.83;;;22.25;;
60205;SDS011;46072;51.554;6.846;2022-12-07T08:20:41;61.00;;;22.45;;
60205;SDS011;46072;51.554;6.846;2022-12-07T08:23:08;58.70;;;21.38;;
60205;SDS011;46072;51.554;6.846;2022-12-07T08:25:36;53.05;;;23.10;;
60205;SDS011;46072;51.554;6.846;2022-12-07T08:28:02;55.78;;;23.35;;
60205;SDS011;46072;51.554;6.846;2022-12-07T08:30:29;56.92;;;22.23;;
60205;SDS011;46072;51.554;6.846;2022-12-07T08:32:56;52.15;;;21.90;;
60205;SDS011;46072;51.554;6.846;2022-12-07T08:35:23;52.67;;;19.25;;
60205;SDS011;46072;51.554;6.846;2022-12-07T08:37:49;50.45;;;19.95;;
60205;SDS011;46072;51.554;6.846;2022-12-07T08:40:16;54.97;;;21.08;;
60205;SDS011;46072;51.554;6.846;2022-12-07T08:42:48;54.35;;;20.15;;
60205;SDS011;46072;51.554;6.846;2022-12-07T08:50:22;50.55;;;19.45;;
60205;SDS011;46072;51.554;6.846;2022-12-07T08:52:50;49.15;;;18.42;;
60205;SDS011;46072;51.554;6.846;2022-12-07T08:55:18;51.35;;;20.52;;
60205;SDS011;46072;51.554;6.846;2022-12-07T08:57:44;53.20;;;19.85;;
60205;SDS011;46072;51.554;6.846;2022-12-07T09:00:11;47.35;;;20.90;;
60205;SDS011;46072;51.554;6.846;2022-12-07T09:02:38;49.88;;;21.23;;
60205;SDS011;46072;51.554;6.846;2022-12-07T09:05:05;48.90;;;19.90;;
60205;SDS011;46072;51.554;6.846;2022-12-07T09:07:38;60.10;;;23.40;;
60205;SDS011;46072;51.554;6.846;2022-12-07T09:10:07;80.40;;;25.08;;
60205;SDS011;46072;51.554;6.846;2022-12-07T09:12:35;62.63;;;23.35;;
60205;SDS011;46072;51.554;6.846;2022-12-07T09:15:02;45.47;;;20.08;;
60205;SDS011;46072;51.554;6.846;2022-12-07T09:17:31;57.00;;;18.75;;
60205;SDS011;46072;51.554;6.846;2022-12-07T09:19:59;53.22;;;19.02;;
60205;SDS011;46072;51.554;6.846;2022-12-07T09:22:31;46.08;;;19.27;;
60205;SDS011;46072;51.554;6.846;2022-12-07T09:24:58;51.75;;;19.63;;
60205;SDS011;46072;51.554;6.846;2022-12-07T09:27:25;52.80;;;20.67;;
60205;SDS011;46072;51.554;6.846;2022-12-07T09:29:52;50.28;;;19.08;;
60205;SDS011;46072;51.554;6.846;2022-12-07T09:32:18;51.58;;;19.88;;
60205;SDS011;46072;51.554;6.846;2022-12-07T09:34:45;39.08;;;16.80;;
60205;SDS011;46072;51.554;6.846;2022-12-07T09:37:11;46.50;;;17.20;;
60205;SDS011;46072;51.554;6.846;2022-12-07T09:39:38;47.78;;;17.70;;
60205;SDS011;46072;51.554;6.846;2022-12-07T09:42:34;45.05;;;17.17;;
60205;SDS011;46072;51.554;6.846;2022-12-07T09:45:06;46.55;;;17.55;;
60205;SDS011;46072;51.554;6.846;2022-12-07T09:47:36;39.17;;;16.73;;
60205;SDS011;46072;51.554;6.846;2022-12-07T09:50:04;39.25;;;16.95;;
60205;SDS011;46072;51.554;6.846;2022-12-07T09:52:32;39.88;;;16.77;;
60205;SDS011;46072;51.554;6.846;2022-12-07T09:55:08;39.15;;;15.23;;
60205;SDS011;46072;51.554;6.846;2022-12-07T09:57:36;37.53;;;16.02;;
60205;SDS011;46072;51.554;6.846;2022-12-07T10:00:06;39.15;;;15.80;;
60205;SDS011;46072;51.554;6.846;2022-12-07T10:02:41;41.00;;;15.40;;
60205;SDS011;46072;51.554;6.846;2022-12-07T10:05:14;37.95;;;14.13;;
60205;SDS011;46072;51.554;6.846;2022-12-07T10:07:49;33.83;;;13.88;;
60205;SDS011;46072;51.554;6.846;2022-12-07T10:10:27;36.45;;;14.38;;
60205;SDS011;46072;51.554;6.846;2022-12-07T10:15:40;36.50;;;14.48;;
60205;SDS011;46072;51.554;6.846;2022-12-07T10:18:39;37.10;;;12.80;;
60205;SDS011;46072;51.554;6.846;2022-12-07T10:21:14;41.15;;;13.60;;
60205;SDS011;46072;51.554;6.846;2022-12-07T10:23:58;34.08;;;12.50;;
60205;SDS011;46072;51.554;6.846;2022-12-07T10:26:30;31.75;;;11.82;;
60205;SDS011;46072;51.554;6.846;2022-12-07T10:29:00;31.80;;;12.73;;
60205;SDS011;46072;51.554;6.846;2022-12-07T10:31:29;30.73;;;11.77;;
60205;SDS011;46072;51.554;6.846;2022-12-07T10:33:57;30.45;;;11.70;;
60205;SDS011;46072;51.554;6.846;2022-12-07T10:36:35;35.55;;;12.10;;
60205;SDS011;46072;51.554;6.846;2022-12-07T10:39:10;21.30;;;8.38;;
60205;SDS011;46072;51.554;6.846;2022-12-07T10:44:27;27.73;;;10.50;;
60205;SDS011;46072;51.554;6.846;2022-12-07T10:47:05;30.98;;;9.98;;
60205;SDS011;46072;51.554;6.846;2022-12-07T10:55:20;22.60;;;9.82;;
60205;SDS011;46072;51.554;6.846;2022-12-07T11:00:18;23.00;;;9.05;;
60205;SDS011;46072;51.554;6.846;2022-12-07T11:05:39;21.92;;;7.75;;
60205;SDS011;46072;51.554;6.846;2022-12-07T11:08:59;25.80;;;8.02;;
60205;SDS011;46072;51.554;6.846;2022-12-07T11:11:16;33.72;;;12.00;;
60205;SDS011;46072;51.554;6.846;2022-12-07T11:13:56;25.88;;;8.63;;
60205;SDS011;46072;51.554;6.846;2022-12-07T11:19:55;25.42;;;8.95;;
60205;SDS011;46072;51.554;6.846;2022-12-07T11:28:06;26.90;;;6.55;;
60205;SDS011;46072;51.554;6.846;2022-12-07T11:33:38;22.30;;;7.13;;
60205;SDS011;46072;51.554;6.846;2022-12-07T11:39:02;15.00;;;5.63;;
60205;SDS011;46072;51.554;6.846;2022-12-07T11:41:34;12.32;;;5.47;;
60205;SDS011;46072;51.554;6.846;2022-12-07T11:44:06;20.23;;;5.07;;
60205;SDS011;46072;51.554;6.846;2022-12-07T11:46:50;15.38;;;4.88;;
60205;SDS011;46072;51.554;6.846;2022-12-07T11:49:33;15.27;;;4.22;;
60205;SDS011;46072;51.554;6.846;2022-12-07T11:52:07;15.50;;;4.20;;
60205;SDS011;46072;51.554;6.846;2022-12-07T11:54:40;23.27;;;5.82;;
60205;SDS011;46072;51.554;6.846;2022-12-07T11:57:12;13.18;;;4.63;;
60205;SDS011;46072;51.554;6.846;2022-12-07T11:59:46;25.23;;;5.95;;
60205;SDS011;46072;51.554;6.846;2022-12-07T12:02:18;16.02;;;4.85;;
60205;SDS011;46072;51.554;6.846;2022-12-07T12:07:29;18.05;;;5.07;;
60205;SDS011;46072;51.554;6.846;2022-12-07T12:10:21;19.20;;;4.70;;
60205;SDS011;46072;51.554;6.846;2022-12-07T12:15:52;17.52;;;5.25;;
60205;SDS011;46072;51.554;6.846;2022-12-07T12:21:07;17.13;;;5.15;;
60205;SDS011;46072;51.554;6.846;2022-12-07T12:26:29;13.93;;;5.70;;
60205;SDS011;46072;51.554;6.846;2022-12-07T12:28:58;39.75;;;7.57;;
60205;SDS011;46072;51.554;6.846;2022-12-07T12:33:54;20.48;;;6.07;;
60205;SDS011;46072;51.554;6.846;2022-12-07T12:36:23;22.40;;;6.78;;
60205;SDS011;46072;51.554;6.846;2022-12-07T12:39:14;26.27;;;7.15;;
60205;SDS011;46072;51.554;6.846;2022-12-07T12:49:32;15.05;;;6.13;;
60205;SDS011;46072;51.554;6.846;2022-12-07T12:52:00;17.92;;;5.97;;
60205;SDS011;46072;51.554;6.846;2022-12-07T12:54:31;24.33;;;6.22;;
60205;SDS011;46072;51.554;6.846;2022-12-07T12:57:06;17.25;;;5.90;;
60205;SDS011;46072;51.554;6.846;2022-12-07T13:02:27;17.67;;;5.00;;
60205;SDS011;46072;51.554;6.846;2022-12-07T13:18:01;21.00;;;5.70;;
60205;SDS011;46072;51.554;6.846;2022-12-07T13:20:46;18.42;;;6.32;;
60205;SDS011;46072;51.554;6.846;2022-12-07T13:23:21;13.77;;;5.85;;
60205;SDS011;46072;51.554;6.846;2022-12-07T13:26:13;15.88;;;5.90;;
60205;SDS011;46072;51.554;6.846;2022-12-07T13:28:50;14.40;;;5.90;;
60205;SDS011;46072;51.554;6.846;2022-12-07T13:31:31;13.00;;;6.15;;
60205;SDS011;46072;51.554;6.846;2022-12-07T13:33:59;13.43;;;5.45;;
60205;SDS011;46072;51.554;6.846;2022-12-07T13:36:30;14.30;;;5.22;;
60205;SDS011;46072;51.554;6.846;2022-12-07T13:39:17;12.70;;;5.53;;
60205;SDS011;46072;51.554;6.846;2022-12-07T13:41:49;15.00;;;5.38;;
60205;SDS011;46072;51.554;6.846;2022-12-07T13:44:28;15.10;;;5.50;;
60205;SDS011;46072;51.554;6.846;2022-12-07T13:49:41;15.70;;;7.05;;
60205;SDS011;46072;51.554;6.846;2022-12-07T13:52:24;21.40;;;5.75;;
60205;SDS011;46072;51.554;6.846;2022-12-07T13:54:57;11.32;;;5.57;;
60205;SDS011;46072;51.554;6.846;2022-12-07T13:57:24;16.25;;;5.55;;
60205;SDS011;46072;51.554;6.846;2022-12-07T13:59:52;16.45;;;6.20;;
60205;SDS011;46072;51.554;6.846;2022-12-07T14:05:07;16.30;;;6.28;;
60205;SDS011;46072;51.554;6.846;2022-12-07T14:08:01;21.88;;;7.05;;
60205;SDS011;46072;51.554;6.846;2022-12-07T14:10:29;17.08;;;7.43;;
60205;SDS011;46072;51.554;6.846;2022-12-07T14:16:02;17.17;;;5.50;;
60205;SDS011;46072;51.554;6.846;2022-12-07T14:18:39;17.30;;;7.05;;
60205;SDS011;46072;51.554;6.846;2022-12-07T14:21:15;19.83;;;6.20;;
60205;SDS011;46072;51.554;6.846;2022-12-07T14:23:43;17.23;;;7.32;;
60205;SDS011;46072;51.554;6.846;2022-12-07T14:26:14;24.08;;;7.13;;
60205;SDS011;46072;51.554;6.846;2022-12-07T14:28:42;17.73;;;6.93;;
60205;SDS011;46072;51.554;6.846;2022-12-07T14:31:13;19.90;;;6.93;;
60205;SDS011;46072;51.554;6.846;2022-12-07T14:33:58;17.65;;;6.95;;
60205;SDS011;46072;51.554;6.846;2022-12-07T14:36:25;17.15;;;7.10;;
60205;SDS011;46072;51.554;6.846;2022-12-07T14:38:52;17.92;;;6.40;;
60205;SDS011;46072;51.554;6.846;2022-12-07T14:41:20;19.02;;;8.18;;
60205;SDS011;46072;51.554;6.846;2022-12-07T14:44:13;20.45;;;7.22;;
60205;SDS011;46072;51.554;6.846;2022-12-07T14:46:50;17.70;;;6.85;;
60205;SDS011;46072;51.554;6.846;2022-12-07T14:49:37;16.15;;;7.32;;
60205;SDS011;46072;51.554;6.846;2022-12-07T14:52:04;105.38;;;29.20;;
60205;SDS011;46072;51.554;6.846;2022-12-07T14:54:51;29.67;;;11.13;;
60205;SDS011;46072;51.554;6.846;2022-12-07T14:57:18;37.38;;;12.95;;
60205;SDS011;46072;51.554;6.846;2022-12-07T14:59:45;27.02;;;11.63;;
60205;SDS011;46072;51.554;6.846;2022-12-07T15:02:12;25.55;;;10.93;;
60205;SDS011;46072;51.554;6.846;2022-12-07T15:04:40;35.72;;;14.13;;
60205;SDS011;46072;51.554;6.846;2022-12-07T15:07:10;19.95;;;8.65;;
60205;SDS011;46072;51.554;6.846;2022-12-07T15:09:41;27.13;;;7.07;;
60205;SDS011;46072;51.554;6.846;2022-12-07T15:12:08;20.63;;;7.82;;
60205;SDS011;46072;51.554;6.846;2022-12-07T15:14:34;21.15;;;8.13;;
60205;SDS011;46072;51.554;6.846;2022-12-07T15:17:01;21.27;;;8.02;;
60205;SDS011;46072;51.554;6.846;2022-12-07T15:19:47;20.05;;;8.00;;
60205;SDS011;46072;51.554;6.846;2022-12-07T15:22:14;21.88;;;7.63;;
60205;SDS011;46072;51.554;6.846;2022-12-07T15:24:40;19.67;;;7.50;;
60205;SDS011;46072;51.554;6.846;2022-12-07T15:27:07;16.38;;;6.78;;
60205;SDS011;46072;51.554;6.846;2022-12-07T15:29:33;15.90;;;7.15;;
60205;SDS011;46072;51.554;6.846;2022-12-07T15:31:59;18.15;;;7.82;;
60205;SDS011;46072;51.554;6.846;2022-12-07T15:34:26;17.70;;;7.35;;
60205;SDS011;46072;51.554;6.846;2022-12-07T15:37:03;26.33;;;8.75;;
60205;SDS011;46072;51.554;6.846;2022-12-07T15:39:30;18.80;;;8.02;;
60205;SDS011;46072;51.554;6.846;2022-12-07T15:41:57;20.73;;;8.20;;
60205;SDS011;46072;51.554;6.846;2022-12-07T15:44:23;20.35;;;7.90;;
60205;SDS011;46072;51.554;6.846;2022-12-07T15:47:08;21.30;;;8.52;;
60205;SDS011;46072;51.554;6.846;2022-12-07T15:49:35;26.85;;;8.65;;
60205;SDS011;46072;51.554;6.846;2022-12-07T15:52:01;17.73;;;7.85;;
60205;SDS011;46072;51.554;6.846;2022-12-07T15:54:28;22.27;;;8.60;;
60205;SDS011;46072;51.554;6.846;2022-12-07T15:56:55;26.13;;;10.05;;
60205;SDS011;46072;51.554;6.846;2022-12-07T15:59:22;19.33;;;8.13;;
60205;SDS011;46072;51.554;6.846;2022-12-07T16:01:49;17.73;;;7.30;;
60205;SDS011;46072;51.554;6.846;2022-12-07T16:04:15;20.95;;;8.63;;
60205;SDS011;46072;51.554;6.846;2022-12-07T16:06:42;20.13;;;8.43;;
60205;SDS011;46072;51.554;6.846;2022-12-07T16:09:08;17.90;;;7.90;;
60205;SDS011;46072;51.554;6.846;2022-12-07T16:11:35;21.95;;;7.82;;
60205;SDS011;46072;51.554;6.846;2022-12-07T16:14:01;24.92;;;7.95;;
60205;SDS011;46072;51.554;6.846;2022-12-07T16:16:28;17.42;;;7.47;;
60205;SDS011;46072;51.554;6.846;2022-12-07T16:18:55;19.55;;;8.75;;
60205;SDS011;46072;51.554;6.846;2022-12-07T16:21:22;20.42;;;8.82;;
60205;SDS011;46072;51.554;6.846;2022-12-07T16:23:51;24.92;;;9.38;;
60205;SDS011;46072;51.554;6.846;2022-12-07T16:26:18;20.08;;;9.35;;
60205;SDS011;46072;51.554;6.846;2022-12-07T16:28:48;26.88;;;10.32;;
60205;SDS011;46072;51.554;6.846;2022-12-07T16:31:16;26.30;;;10.40;;